Time;durP1;ratioP1;P1;durP2;ratioP2;P2;SDS_P1;SDS_P2;PMS_P1;PMS_P2;Temp;Humidity;BMP_temperature;BMP_pressure;BME280_temperature;BME280_humidity;BME280_pressure;Samples;Min_cycle;Max_cycle;Signal;HPM_P1;HPM_P2
2023/10/06 00:02:09;;;;;;;6.70;4.22;;;;;;;;;;5096914;28;20470;-68
2023/10/06 00:04:41;;;;;;;8.15;4.57;;;;;;;;;;5096610;28;20108;-68
2023/10/06 00:07:08;;;;;;;7.53;4.22;;;;;;;;;;5096950;28;20058;-68
2023/10/06 00:09:33;;;;;;;5.40;3.95;;;;;;;;;;5095877;28;20130;-68
2023/10/06 00:11:59;;;;;;;7.47;4.78;;;;;;;;;;5077960;28;20063;-68
2023/10/06 00:14:40;;;;;;;8.25;4.30;;;;;;;;;;5078351;28;20477;-68
2023/10/06 00:17:09;;;;;;;6.55;4.53;;;;;;;;;;5096641;28;20068;-68
2023/10/06 00:19:36;;;;;;;6.70;4.13;;;;;;;;;;5096369;28;20020;-68
2023/10/06 00:22:18;;;;;;;7.45;4.28;;;;;;;;;;5096359;28;20474;-68
2023/10/06 00:24:43;;;;;;;5.68;4.28;;;;;;;;;;5078335;28;20039;-68
2023/10/06 00:27:12;;;;;;;7.50;4.25;;;;;;;;;;5096473;28;20032;-68
2023/10/06 00:29:38;;;;;;;6.60;4.20;;;;;;;;;;5096890;28;20040;-68
2023/10/06 00:32:22;;;;;;;6.82;4.15;;;;;;;;;;5096223;28;20024;-68
2023/10/06 00:34:48;;;;;;;8.25;4.53;;;;;;;;;;5077912;28;20131;-68
2023/10/06 00:37:23;;;;;;;4.82;3.75;;;;;;;;;;5095941;28;20040;-69
2023/10/06 00:39:56;;;;;;;6.53;4.15;;;;;;;;;;5096190;28;20063;-69
2023/10/06 00:42:21;;;;;;;5.10;3.60;;;;;;;;;;5095920;28;20114;-69
2023/10/06 00:44:47;;;;;;;6.32;4.07;;;;;;;;;;5096066;28;20072;-68
2023/10/06 00:47:15;;;;;;;6.85;3.83;;;;;;;;;;5095686;28;20032;-69
2023/10/06 00:49:43;;;;;;;6.40;3.58;;;;;;;;;;5095783;28;20027;-68
2023/10/06 00:52:11;;;;;;;5.55;4.22;;;;;;;;;;5096029;28;20123;-68
2023/10/06 00:54:37;;;;;;;8.00;4.78;;;;;;;;;;5096175;28;20359;-68
2023/10/06 00:57:08;;;;;;;7.32;4.13;;;;;;;;;;5095793;28;20088;-68
2023/10/06 00:59:37;;;;;;;8.00;3.88;;;;;;;;;;5077442;28;20028;-68
2023/10/06 01:02:07;;;;;;;5.00;4.00;;;;;;;;;;5078180;28;20124;-69
2023/10/06 01:04:42;;;;;;;5.80;3.78;;;;;;;;;;5095426;28;20032;-68
2023/10/06 01:07:08;;;;;;;5.03;3.63;;;;;;;;;;5095361;28;20043;-69
2023/10/06 01:09:33;;;;;;;5.13;3.53;;;;;;;;;;5083575;28;20093;-68
2023/10/06 01:11:59;;;;;;;4.03;3.25;;;;;;;;;;5095688;28;20514;-68
2023/10/06 01:14:27;;;;;;;3.95;2.90;;;;;;;;;;5095292;28;20481;-68
2023/10/06 01:16:56;;;;;;;3.10;2.80;;;;;;;;;;5094384;28;20071;-68
2023/10/06 01:19:27;;;;;;;3.50;2.90;;;;;;;;;;5095145;28;20460;-69
2023/10/06 01:21:54;;;;;;;3.25;2.83;;;;;;;;;;5093954;28;20047;-68
2023/10/06 01:24:27;;;;;;;3.65;3.08;;;;;;;;;;5094142;28;20067;-69
2023/10/06 01:26:53;;;;;;;4.20;3.20;;;;;;;;;;5076951;28;20028;-70
2023/10/06 01:29:22;;;;;;;4.13;3.28;;;;;;;;;;5095103;28;20043;-68
2023/10/06 01:31:49;;;;;;;6.72;3.63;;;;;;;;;;5094082;28;20469;-69
2023/10/06 01:34:15;;;;;;;4.10;3.33;;;;;;;;;;5093651;28;20113;-70
2023/10/06 01:36:42;;;;;;;4.95;3.40;;;;;;;;;;5095040;28;20055;-70
2023/10/06 01:39:16;;;;;;;6.30;3.58;;;;;;;;;;5095119;28;20063;-70
2023/10/06 01:41:45;;;;;;;5.38;3.70;;;;;;;;;;5094760;28;20051;-70
2023/10/06 01:44:12;;;;;;;3.73;3.33;;;;;;;;;;5095044;28;20042;-69
2023/10/06 01:46:38;;;;;;;6.57;3.45;;;;;;;;;;5095435;28;20044;-69
2023/10/06 01:49:04;;;;;;;3.83;2.95;;;;;;;;;;5093940;28;20024;-69
2023/10/06 01:51:38;;;;;;;4.95;3.72;;;;;;;;;;5095110;28;20347;-69
2023/10/06 01:54:05;;;;;;;3.40;2.95;;;;;;;;;;5095348;28;20133;-70
2023/10/06 01:56:31;;;;;;;3.90;3.22;;;;;;;;;;5093202;28;20462;-69
2023/10/06 01:58:59;;;;;;;5.53;2.90;;;;;;;;;;5093200;28;20068;-69
2023/10/06 02:01:25;;;;;;;5.43;2.80;;;;;;;;;;5093161;28;20034;-69
2023/10/06 02:03:50;;;;;;;5.30;2.97;;;;;;;;;;5094556;28;20119;-69
2023/10/06 02:06:16;;;;;;;4.22;2.88;;;;;;;;;;5092981;28;20140;-69
2023/10/06 02:08:43;;;;;;;3.80;3.20;;;;;;;;;;5094100;28;20052;-69
2023/10/06 02:11:09;;;;;;;5.90;3.10;;;;;;;;;;5094239;28;20046;-69
2023/10/06 02:13:36;;;;;;;4.40;3.33;;;;;;;;;;5076073;28;20027;-69
2023/10/06 02:16:03;;;;;;;4.60;3.10;;;;;;;;;;5059286;28;20047;-68
2023/10/06 02:18:35;;;;;;;3.63;3.33;;;;;;;;;;5094139;28;20040;-68
2023/10/06 02:21:11;;;;;;;3.42;3.13;;;;;;;;;;5094583;28;20032;-68
2023/10/06 02:23:37;;;;;;;3.40;3.10;;;;;;;;;;5094116;28;20050;-68
2023/10/06 02:26:07;;;;;;;4.57;3.72;;;;;;;;;;5093986;28;20496;-68
2023/10/06 02:28:33;;;;;;;6.90;3.00;;;;;;;;;;5075784;28;20410;-68
2023/10/06 02:31:04;;;;;;;3.15;2.78;;;;;;;;;;5075826;28;20036;-68
2023/10/06 02:33:36;;;;;;;3.20;2.67;;;;;;;;;;5075262;28;20032;-68
2023/10/06 02:36:15;;;;;;;4.00;2.40;;;;;;;;;;5094082;28;20035;-68
2023/10/06 02:38:46;;;;;;;3.35;2.58;;;;;;;;;;5094122;28;20044;-68
2023/10/06 02:41:12;;;;;;;2.70;2.50;;;;;;;;;;5094043;28;20059;-67
2023/10/06 02:43:42;;;;;;;4.60;2.70;;;;;;;;;;5075587;28;20046;-67
2023/10/06 02:46:08;;;;;;;3.10;2.78;;;;;;;;;;5094114;28;20064;-68
2023/10/06 02:48:34;;;;;;;3.20;2.63;;;;;;;;;;5093601;28;20044;-68
2023/10/06 02:51:01;;;;;;;3.05;2.70;;;;;;;;;;5093740;28;20032;-68
2023/10/06 02:53:29;;;;;;;3.05;2.78;;;;;;;;;;5094006;28;20039;-68
2023/10/06 02:56:05;;;;;;;4.63;3.42;;;;;;;;;;5075495;28;20486;-68
2023/10/06 02:58:33;;;;;;;4.18;3.45;;;;;;;;;;5075535;28;20060;-61
2023/10/06 03:00:59;;;;;;;4.50;3.42;;;;;;;;;;5093605;28;20130;-61
2023/10/06 03:03:28;;;;;;;3.47;3.17;;;;;;;;;;5075975;28;20048;-61
2023/10/06 03:05:56;;;;;;;4.60;3.17;;;;;;;;;;5093683;28;20021;-61
2023/10/06 03:08:25;;;;;;;4.13;3.13;;;;;;;;;;5075362;28;20064;-60
2023/10/06 03:10:50;;;;;;;3.55;3.25;;;;;;;;;;5093476;28;20040;-60
2023/10/06 03:13:16;;;;;;;4.75;3.10;;;;;;;;;;5075338;28;20398;-61
2023/10/06 03:15:45;;;;;;;4.45;2.90;;;;;;;;;;5075728;28;20028;-61
2023/10/06 03:18:15;;;;;;;3.95;3.05;;;;;;;;;;5075407;28;20044;-61
2023/10/06 03:20:48;;;;;;;3.13;2.83;;;;;;;;;;5075568;28;20508;-61
2023/10/06 03:24:05;;;;;;;3.67;3.25;;;;;;;;;;5075305;28;20076;-61
2023/10/06 03:26:03;;;;;;;3.20;2.90;;;;;;;;;;5079123;28;20516;-61
2023/10/06 03:28:49;;;;;;;3.22;2.90;;;;;;;;;;5075921;28;20114;-62
2023/10/06 03:33:44;;;;;;;3.80;2.90;;;;;;;;;;5075190;28;20035;-62
2023/10/06 03:36:19;;;;;;;3.77;3.20;;;;;;;;;;5075181;28;20097;-62
2023/10/06 03:38:57;;;;;;;6.65;2.78;;;;;;;;;;5093357;28;20043;-61
2023/10/06 03:41:31;;;;;;;4.43;3.10;;;;;;;;;;5075114;28;20047;-61
2023/10/06 03:44:03;;;;;;;3.25;2.80;;;;;;;;;;5075729;28;20028;-61
2023/10/06 03:46:36;;;;;;;2.92;2.60;;;;;;;;;;5077568;28;20040;-61
2023/10/06 03:49:03;;;;;;;3.72;2.88;;;;;;;;;;5096908;28;20036;-61
2023/10/06 03:51:38;;;;;;;2.70;2.50;;;;;;;;;;5078731;28;20568;-61
2023/10/06 03:54:04;;;;;;;5.05;2.40;;;;;;;;;;5096848;28;20043;-61
2023/10/06 03:56:30;;;;;;;2.40;2.20;;;;;;;;;;5079283;28;20036;-61
2023/10/06 03:58:55;;;;;;;2.80;2.60;;;;;;;;;;5097004;28;20093;-61
2023/10/06 04:01:26;;;;;;;2.42;2.22;;;;;;;;;;5096443;28;20090;-61
2023/10/06 04:03:58;;;;;;;2.65;2.00;;;;;;;;;;5096367;28;20047;-62
2023/10/06 04:06:24;;;;;;;2.92;2.00;;;;;;;;;;5097098;28;20059;-62
2023/10/06 04:08:52;;;;;;;3.35;2.10;;;;;;;;;;5096610;28;20043;-62
2023/10/06 04:11:17;;;;;;;2.08;1.80;;;;;;;;;;5097061;28;20035;-61
2023/10/06 04:13:43;;;;;;;2.33;2.20;;;;;;;;;;5096702;28;20390;-61
2023/10/06 04:16:08;;;;;;;2.65;2.45;;;;;;;;;;5096708;28;20029;-61
2023/10/06 04:18:34;;;;;;;2.50;2.30;;;;;;;;;;5097140;28;20466;-61
2023/10/06 04:20:59;;;;;;;2.60;2.35;;;;;;;;;;5096841;28;20040;-61
2023/10/06 04:23:25;;;;;;;3.25;2.50;;;;;;;;;;5078341;28;20035;-60
2023/10/06 04:25:54;;;;;;;3.28;2.40;;;;;;;;;;5077988;28;20067;-61
2023/10/06 04:28:22;;;;;;;3.03;2.58;;;;;;;;;;5096214;28;20044;-61
2023/10/06 04:30:48;;;;;;;5.55;2.47;;;;;;;;;;5096658;28;20036;-61
2023/10/06 04:33:15;;;;;;;3.22;2.70;;;;;;;;;;5096839;28;20031;-61
2023/10/06 04:35:42;;;;;;;4.00;3.17;;;;;;;;;;5077910;28;20060;-61
2023/10/06 04:38:10;;;;;;;3.53;3.03;;;;;;;;;;5096451;28;20032;-61
2023/10/06 04:40:36;;;;;;;4.72;3.05;;;;;;;;;;5096545;28;20459;-61
2023/10/06 04:43:01;;;;;;;5.70;3.15;;;;;;;;;;5096204;28;20089;-61
2023/10/06 04:45:31;;;;;;;3.47;2.80;;;;;;;;;;5078158;28;20398;-61
2023/10/06 04:48:00;;;;;;;2.65;2.45;;;;;;;;;;5095561;28;20455;-58
2023/10/06 04:50:26;;;;;;;3.10;2.60;;;;;;;;;;5095456;28;20070;-58
2023/10/06 04:52:54;;;;;;;3.55;2.85;;;;;;;;;;5094501;28;20059;-58
2023/10/06 04:55:19;;;;;;;3.55;3.05;;;;;;;;;;5095187;28;20059;-58
2023/10/06 04:57:44;;;;;;;5.47;3.22;;;;;;;;;;5094239;28;20070;-58
2023/10/06 05:00:14;;;;;;;5.35;3.17;;;;;;;;;;5095013;28;20044;-58
2023/10/06 05:02:44;;;;;;;4.43;3.47;;;;;;;;;;5095254;28;20040;-58
2023/10/06 05:05:12;;;;;;;5.75;3.40;;;;;;;;;;5095217;28;20043;-58
2023/10/06 05:07:38;;;;;;;4.63;2.83;;;;;;;;;;5095148;28;20035;-58
2023/10/06 05:10:08;;;;;;;3.80;3.15;;;;;;;;;;5094967;28;20036;-58
2023/10/06 05:12:37;;;;;;;5.75;3.58;;;;;;;;;;5060320;28;20039;-58
2023/10/06 05:15:09;;;;;;;6.22;3.78;;;;;;;;;;5076643;28;20051;-58
2023/10/06 05:17:35;;;;;;;7.45;3.97;;;;;;;;;;5094829;28;20119;-56
2023/10/06 05:20:01;;;;;;;7.10;3.75;;;;;;;;;;5094688;28;20098;-56
2023/10/06 05:22:26;;;;;;;4.13;3.72;;;;;;;;;;5094879;28;20040;-56
2023/10/06 05:24:51;;;;;;;5.13;3.58;;;;;;;;;;5076684;28;20032;-57
2023/10/06 05:27:19;;;;;;;4.82;3.53;;;;;;;;;;5094738;28;20532;-56
2023/10/06 05:29:45;;;;;;;6.55;4.22;;;;;;;;;;5076654;28;20051;-58
2023/10/06 05:32:11;;;;;;;7.10;4.05;;;;;;;;;;5094607;28;20541;-56
2023/10/06 05:34:40;;;;;;;6.35;4.45;;;;;;;;;;5094637;28;20040;-56
2023/10/06 05:37:08;;;;;;;6.47;4.57;;;;;;;;;;5095422;28;20067;-56
2023/10/06 05:39:33;;;;;;;6.30;4.25;;;;;;;;;;5095087;28;20043;-56
2023/10/06 05:41:59;;;;;;;7.10;4.50;;;;;;;;;;5095018;28;20043;-56
2023/10/06 05:44:25;;;;;;;6.43;4.47;;;;;;;;;;5093832;28;20058;-56
2023/10/06 05:46:50;;;;;;;7.63;4.78;;;;;;;;;;5094449;28;20035;-56
2023/10/06 05:49:20;;;;;;;6.32;4.63;;;;;;;;;;5095113;28;20064;-58
2023/10/06 05:51:46;;;;;;;;;;;;;;;;;;5094952;28;20084;-58
2023/10/06 05:54:18;;;;;;;6.83;4.43;;;;;;;;;;5094541;28;19908;-58
2023/10/06 05:56:45;;;;;;;7.00;5.00;;;;;;;;;;5075621;28;20373;-58
2023/10/06 05:59:12;;;;;;;6.45;5.72;;;;;;;;;;5076255;28;20032;-58
2023/10/06 06:01:41;;;;;;;7.03;5.22;;;;;;;;;;5094036;28;20052;-58
2023/10/06 06:04:09;;;;;;;6.30;5.28;;;;;;;;;;5093451;28;20474;-58
2023/10/06 06:06:36;;;;;;;7.20;5.20;;;;;;;;;;5093280;28;20032;-58
2023/10/06 06:09:02;;;;;;;7.78;5.22;;;;;;;;;;5075693;28;20035;-56
2023/10/06 06:11:28;;;;;;;7.50;5.72;;;;;;;;;;5092298;28;20052;-56
2023/10/06 06:13:56;;;;;;;11.35;7.47;;;;;;;;;;5092260;28;20032;-56
2023/10/06 06:16:22;;;;;;;10.85;7.15;;;;;;;;;;5092244;28;20113;-56
2023/10/06 06:18:47;;;;;;;9.45;5.85;;;;;;;;;;5092460;28;20444;-56
2023/10/06 06:21:16;;;;;;;6.35;5.28;;;;;;;;;;5094062;28;20123;-56
2023/10/06 06:23:46;;;;;;;6.85;4.38;;;;;;;;;;5094344;28;20085;-56
2023/10/06 06:26:11;;;;;;;5.63;4.38;;;;;;;;;;5093244;28;20454;-64
2023/10/06 06:28:39;;;;;;;5.75;4.07;;;;;;;;;;5092830;28;20075;-62
2023/10/06 06:31:06;;;;;;;6.07;4.20;;;;;;;;;;5081477;28;20449;-62
2023/10/06 06:33:32;;;;;;;7.03;4.40;;;;;;;;;;5082146;28;20057;-63
2023/10/06 06:35:58;;;;;;;6.68;4.13;;;;;;;;;;5083222;28;20116;-62
2023/10/06 06:38:25;;;;;;;6.22;3.88;;;;;;;;;;5081254;28;20022;-63
2023/10/06 06:40:50;;;;;;;6.57;4.07;;;;;;;;;;5082237;28;20032;-59
2023/10/06 06:43:19;;;;;;;4.97;3.70;;;;;;;;;;5081743;28;20047;-62
2023/10/06 06:45:45;;;;;;;3.55;3.25;;;;;;;;;;5081478;28;20040;-63
2023/10/06 06:48:16;;;;;;;6.10;3.72;;;;;;;;;;5078060;28;20043;-62
2023/10/06 06:50:42;;;;;;;5.53;3.47;;;;;;;;;;5093007;28;20028;-62
2023/10/06 06:53:08;;;;;;;4.38;3.42;;;;;;;;;;5092673;28;20485;-62
2023/10/06 06:55:34;;;;;;;3.70;2.95;;;;;;;;;;5092792;28;20028;-61
2023/10/06 06:58:05;;;;;;;2.78;2.47;;;;;;;;;;5092653;28;20436;-63
2023/10/06 07:00:30;;;;;;;4.55;2.97;;;;;;;;;;5092668;28;20065;-64
2023/10/06 07:02:56;;;;;;;3.45;2.55;;;;;;;;;;5092700;28;20036;-64
2023/10/06 07:05:22;;;;;;;4.65;2.85;;;;;;;;;;5092685;28;20044;-64
2023/10/06 07:07:50;;;;;;;5.40;2.58;;;;;;;;;;5092619;28;20101;-64
2023/10/06 07:10:19;;;;;;;3.00;2.45;;;;;;;;;;5092439;28;20411;-64
2023/10/06 07:12:48;;;;;;;3.20;2.25;;;;;;;;;;5092644;28;20047;-64
2023/10/06 07:15:20;;;;;;;3.28;2.13;;;;;;;;;;5092561;28;20040;-64
2023/10/06 07:17:46;;;;;;;3.80;2.55;;;;;;;;;;5074492;28;20032;-64
2023/10/06 07:20:23;;;;;;;3.05;2.03;;;;;;;;;;5094775;28;20040;-64
2023/10/06 07:22:52;;;;;;;4.22;2.28;;;;;;;;;;5096492;28;20086;-64
2023/10/06 07:25:18;;;;;;;2.40;2.15;;;;;;;;;;5096403;28;20048;-64
2023/10/06 07:27:44;;;;;;;3.67;2.83;;;;;;;;;;5096612;28;20047;-63
2023/10/06 07:30:10;;;;;;;5.13;3.25;;;;;;;;;;5097277;28;20096;-60
2023/10/06 07:32:40;;;;;;;2.95;2.65;;;;;;;;;;5096972;28;20051;-58
2023/10/06 07:35:07;;;;;;;7.20;4.03;;;;;;;;;;5097540;28;20377;-58
2023/10/06 07:37:32;;;;;;;13.95;6.78;;;;;;;;;;5097548;28;20036;-58
2023/10/06 07:40:02;;;;;;;14.85;7.32;;;;;;;;;;5079475;28;20128;-58
2023/10/06 07:42:29;;;;;;;11.18;7.03;;;;;;;;;;5078874;28;20401;-58
2023/10/06 07:44:55;;;;;;;18.58;7.43;;;;;;;;;;5097056;28;20043;-58
2023/10/06 07:47:24;;;;;;;19.17;8.82;;;;;;;;;;5097115;28;20075;-58
2023/10/06 07:49:50;;;;;;;18.35;8.43;;;;;;;;;;5097526;28;20047;-58
2023/10/06 07:52:17;;;;;;;23.80;9.90;;;;;;;;;;5096956;28;20424;-58
2023/10/06 07:54:43;;;;;;;20.80;9.90;;;;;;;;;;5097282;28;20354;-59
2023/10/06 07:57:10;;;;;;;19.63;6.45;;;;;;;;;;5096665;28;20106;-58
2023/10/06 07:59:36;;;;;;;17.17;7.63;;;;;;;;;;5096961;28;20449;-58
2023/10/06 08:02:03;;;;;;;16.48;8.65;;;;;;;;;;5096515;28;20040;-58
2023/10/06 08:04:28;;;;;;;21.27;10.05;;;;;;;;;;5096726;28;20055;-59
2023/10/06 08:06:54;;;;;;;21.63;10.40;;;;;;;;;;5097125;28;20521;-59
2023/10/06 08:09:21;;;;;;;22.40;10.98;;;;;;;;;;5082933;28;20061;-59
2023/10/06 08:11:48;;;;;;;19.30;11.23;;;;;;;;;;5096980;28;20107;-58
2023/10/06 08:14:14;;;;;;;19.90;10.85;;;;;;;;;;5097015;28;20117;-58
2023/10/06 08:16:42;;;;;;;15.23;9.52;;;;;;;;;;5096701;28;20062;-58
2023/10/06 08:19:07;;;;;;;16.52;9.93;;;;;;;;;;5096723;28;20543;-59
2023/10/06 08:21:34;;;;;;;17.13;10.95;;;;;;;;;;5096849;28;20032;-58
2023/10/06 08:24:00;;;;;;;19.65;10.38;;;;;;;;;;5096920;28;20115;-58
2023/10/06 08:26:25;;;;;;;16.77;11.88;;;;;;;;;;5096576;28;20036;-58
2023/10/06 08:28:51;;;;;;;17.80;9.80;;;;;;;;;;5096686;28;20036;-58
2023/10/06 08:31:17;;;;;;;15.02;9.60;;;;;;;;;;5094824;28;20029;-58
2023/10/06 08:33:43;;;;;;;15.30;10.50;;;;;;;;;;5096348;28;20036;-58
2023/10/06 08:36:10;;;;;;;15.15;9.18;;;;;;;;;;5095326;28;20545;-58
2023/10/06 08:38:36;;;;;;;15.68;9.82;;;;;;;;;;5096604;28;20458;-58
2023/10/06 08:41:02;;;;;;;10.77;7.03;;;;;;;;;;5094818;28;20085;-59
2023/10/06 08:43:27;;;;;;;13.80;8.70;;;;;;;;;;5096057;28;20044;-58
2023/10/06 08:45:55;;;;;;;17.27;8.32;;;;;;;;;;5096166;28;20085;-58
2023/10/06 08:48:24;;;;;;;17.33;9.27;;;;;;;;;;5096141;28;20040;-58
2023/10/06 08:50:53;;;;;;;13.00;8.30;;;;;;;;;;5095791;28;20481;-59
2023/10/06 08:53:20;;;;;;;11.30;7.60;;;;;;;;;;5096108;28;20040;-58
2023/10/06 08:55:46;;;;;;;12.00;7.82;;;;;;;;;;5095845;28;20158;-58
2023/10/06 08:58:15;;;;;;;13.40;8.25;;;;;;;;;;5094186;28;20040;-58
2023/10/06 09:00:43;;;;;;;8.95;6.13;;;;;;;;;;5095632;28;20043;-58
2023/10/06 09:03:11;;;;;;;11.50;8.68;;;;;;;;;;5094302;28;20031;-58
2023/10/06 09:05:40;;;;;;;13.60;8.98;;;;;;;;;;5095594;28;20039;-58
2023/10/06 09:08:09;;;;;;;13.48;8.80;;;;;;;;;;5094738;28;20449;-58
2023/10/06 09:10:42;;;;;;;11.75;7.72;;;;;;;;;;5094131;28;20466;-58
2023/10/06 09:13:10;;;;;;;17.15;9.52;;;;;;;;;;5095620;28;20115;-58
2023/10/06 09:15:36;;;;;;;23.13;11.73;;;;;;;;;;5095987;28;20450;-66
2023/10/06 09:18:15;;;;;;;15.23;9.88;;;;;;;;;;5095227;28;20047;-66
2023/10/06 09:20:41;;;;;;;14.43;8.00;;;;;;;;;;5095572;28;20044;-58
2023/10/06 09:23:06;;;;;;;11.52;7.45;;;;;;;;;;5095327;28;20046;-58
2023/10/06 09:25:42;;;;;;;13.82;7.90;;;;;;;;;;5095639;28;20032;-58
2023/10/06 09:28:13;;;;;;;13.98;8.30;;;;;;;;;;5094996;28;20048;-58
2023/10/06 09:30:50;;;;;;;10.95;5.80;;;;;;;;;;5095319;28;20036;-58
2023/10/06 09:33:15;;;;;;;12.55;7.78;;;;;;;;;;5095174;28;20090;-58
2023/10/06 09:35:43;;;;;;;18.00;10.25;;;;;;;;;;5095138;28;20020;-58
2023/10/06 09:38:15;;;;;;;15.32;8.93;;;;;;;;;;5095175;28;20039;-58
2023/10/06 09:40:42;;;;;;;19.98;11.70;;;;;;;;;;5092850;28;20056;-58
2023/10/06 09:43:07;;;;;;;14.88;7.97;;;;;;;;;;5095270;28;20176;-58
2023/10/06 09:45:33;;;;;;;13.98;8.02;;;;;;;;;;5095020;28;20069;-59
2023/10/06 09:48:01;;;;;;;14.18;8.32;;;;;;;;;;5094675;28;20120;-58
2023/10/06 09:50:28;;;;;;;11.00;7.97;;;;;;;;;;5095205;28;20117;-59
2023/10/06 09:52:54;;;;;;;12.85;8.05;;;;;;;;;;5094615;28;20048;-59
2023/10/06 09:58:55;;;;;;;11.15;6.80;;;;;;;;;;5095324;28;20565;-58
2023/10/06 10:01:25;;;;;;;10.27;6.63;;;;;;;;;;5094758;28;20071;-58
2023/10/06 10:03:55;;;;;;;8.05;6.10;;;;;;;;;;5094419;28;20117;-59
2023/10/06 10:06:21;;;;;;;7.57;5.43;;;;;;;;;;5093171;28;20054;-58
2023/10/06 10:08:47;;;;;;;10.75;5.82;;;;;;;;;;5094177;28;20047;-59
2023/10/06 10:11:17;;;;;;;5.35;4.78;;;;;;;;;;5094590;28;20044;-58
2023/10/06 10:14:21;;;;;;;7.65;4.28;;;;;;;;;;5094564;28;20089;-58
2023/10/06 10:17:00;;;;;;;6.22;3.38;;;;;;;;;;4992720;28;20073;-59
2023/10/06 10:19:27;;;;;;;3.35;3.05;;;;;;;;;;4992933;28;20078;-59
2023/10/06 10:21:55;;;;;;;5.30;3.85;;;;;;;;;;5049627;28;20052;-59
2023/10/06 10:24:22;;;;;;;5.63;3.40;;;;;;;;;;5094658;28;20032;-59
2023/10/06 10:26:48;;;;;;;3.50;2.97;;;;;;;;;;5094344;28;20094;-58
2023/10/06 10:29:13;;;;;;;3.38;2.95;;;;;;;;;;5093936;28;20036;-58
2023/10/06 10:31:38;;;;;;;4.95;3.00;;;;;;;;;;5075830;28;20052;-58
2023/10/06 10:34:05;;;;;;;3.28;2.83;;;;;;;;;;5094218;28;20041;-59
2023/10/06 10:36:31;;;;;;;6.78;3.60;;;;;;;;;;5094200;28;20366;-58
2023/10/06 10:39:18;;;;;;;3.15;2.85;;;;;;;;;;5075729;28;20051;-58
2023/10/06 10:41:45;;;;;;;5.07;3.33;;;;;;;;;;5094421;28;20036;-58
2023/10/06 10:44:11;;;;;;;4.60;3.30;;;;;;;;;;5093968;28;20044;-58
2023/10/06 10:46:44;;;;;;;5.18;2.47;;;;;;;;;;5094735;28;20081;-58
2023/10/06 10:49:13;;;;;;;3.72;2.72;;;;;;;;;;5093739;28;20055;-58
2023/10/06 10:52:00;;;;;;;2.50;2.30;;;;;;;;;;5094072;28;20389;-58
2023/10/06 10:54:30;;;;;;;3.97;2.30;;;;;;;;;;5096811;28;20100;-59
2023/10/06 10:57:02;;;;;;;3.53;2.75;;;;;;;;;;5100610;28;20032;-58
2023/10/06 10:59:53;;;;;;;2.30;1.85;;;;;;;;;;5100189;28;20048;-58
2023/10/06 11:02:19;;;;;;;2.28;2.08;;;;;;;;;;5044534;28;20040;-58
2023/10/06 11:04:45;;;;;;;3.38;2.15;;;;;;;;;;5100495;28;20505;-58
2023/10/06 11:07:12;;;;;;;3.65;2.30;;;;;;;;;;5101105;28;20040;-66
2023/10/06 11:09:41;;;;;;;4.57;2.90;;;;;;;;;;5100879;28;20040;-66
2023/10/06 11:12:25;;;;;;;3.88;2.38;;;;;;;;;;5100689;28;20032;-66
2023/10/06 11:14:55;;;;;;;3.78;2.05;;;;;;;;;;5100625;28;20040;-67
2023/10/06 11:17:26;;;;;;;3.72;2.28;;;;;;;;;;5100299;28;20045;-67
2023/10/06 11:20:01;;;;;;;4.90;2.47;;;;;;;;;;5100498;28;20051;-67
2023/10/06 11:22:28;;;;;;;3.13;2.35;;;;;;;;;;5100548;28;20504;-67
2023/10/06 11:24:57;;;;;;;3.78;2.20;;;;;;;;;;5100788;28;20036;-67
2023/10/06 11:27:23;;;;;;;5.80;2.15;;;;;;;;;;5082486;28;20130;-67
2023/10/06 11:29:51;;;;;;;4.00;2.25;;;;;;;;;;5100126;28;20111;-67
2023/10/06 11:32:17;;;;;;;3.08;1.85;;;;;;;;;;5100695;28;20039;-66
2023/10/06 11:34:43;;;;;;;4.13;2.47;;;;;;;;;;5082016;28;20036;-67
2023/10/06 11:37:09;;;;;;;2.85;2.28;;;;;;;;;;5100139;28;20039;-67
2023/10/06 11:39:35;;;;;;;3.22;2.03;;;;;;;;;;5100412;28;20044;-67
2023/10/06 11:42:19;;;;;;;3.92;2.08;;;;;;;;;;5099807;28;20043;-66
2023/10/06 11:44:45;;;;;;;2.65;1.65;;;;;;;;;;5098481;28;20556;-66
2023/10/06 11:47:11;;;;;;;1.85;1.40;;;;;;;;;;5099931;28;20067;-66
2023/10/06 11:49:52;;;;;;;2.10;1.90;;;;;;;;;;5099905;28;20036;-66
2023/10/06 11:52:17;;;;;;;3.40;1.80;;;;;;;;;;5100013;28;20039;-66
2023/10/06 11:54:43;;;;;;;3.90;2.00;;;;;;;;;;5099698;28;20365;-67
2023/10/06 11:57:08;;;;;;;3.30;1.90;;;;;;;;;;5100018;28;20392;-66
2023/10/06 11:59:34;;;;;;;5.13;2.28;;;;;;;;;;5082152;28;20044;-66
2023/10/06 12:02:06;;;;;;;3.70;2.15;;;;;;;;;;5082081;28;20055;-66
2023/10/06 12:04:32;;;;;;;4.53;2.50;;;;;;;;;;5100581;28;20361;-60
2023/10/06 12:07:00;;;;;;;3.58;1.98;;;;;;;;;;5096049;28;20111;-59
2023/10/06 12:09:29;;;;;;;3.42;2.05;;;;;;;;;;5096382;28;20120;-59
2023/10/06 12:11:56;;;;;;;2.80;1.75;;;;;;;;;;5096613;28;20028;-59
2023/10/06 12:14:22;;;;;;;2.00;1.80;;;;;;;;;;5096660;28;20047;-58
2023/10/06 12:16:47;;;;;;;4.35;1.60;;;;;;;;;;5096766;28;20118;-58
2023/10/06 12:19:12;;;;;;;4.13;1.75;;;;;;;;;;5096754;28;20063;-58
2023/10/06 12:21:38;;;;;;;2.72;1.38;;;;;;;;;;5096970;28;20560;-59
2023/10/06 12:24:03;;;;;;;2.05;1.42;;;;;;;;;;5096370;28;20040;-59
2023/10/06 12:26:29;;;;;;;4.00;1.63;;;;;;;;;;5096529;28;20032;-58
2023/10/06 12:28:54;;;;;;;2.63;1.60;;;;;;;;;;5096287;28;20066;-58
2023/10/06 12:31:19;;;;;;;2.55;1.60;;;;;;;;;;5078768;28;20040;-58
2023/10/06 12:33:45;;;;;;;3.05;1.40;;;;;;;;;;5096870;28;20032;-58
2023/10/06 12:36:12;;;;;;;1.83;1.65;;;;;;;;;;5093109;28;20060;-59
2023/10/06 12:38:39;;;;;;;2.35;1.90;;;;;;;;;;5090300;28;20035;-59
2023/10/06 12:41:06;;;;;;;4.22;2.10;;;;;;;;;;5096841;28;20036;-58
2023/10/06 12:43:35;;;;;;;4.63;2.50;;;;;;;;;;5096142;28;20036;-59
2023/10/06 12:46:03;;;;;;;2.42;1.83;;;;;;;;;;5096345;28;20035;-59
2023/10/06 12:48:30;;;;;;;3.10;1.88;;;;;;;;;;5096460;28;20039;-59
2023/10/06 12:50:56;;;;;;;2.38;1.90;;;;;;;;;;5095716;28;20035;-59
2023/10/06 12:53:21;;;;;;;4.78;1.75;;;;;;;;;;5095796;28;20448;-59
2023/10/06 12:55:56;;;;;;;2.95;1.77;;;;;;;;;;5096001;28;20438;-59
2023/10/06 12:58:22;;;;;;;1.85;1.30;;;;;;;;;;5078192;28;20040;-59
2023/10/06 13:00:47;;;;;;;2.90;1.50;;;;;;;;;;5077881;28;20185;-60
2023/10/06 13:03:15;;;;;;;3.70;1.73;;;;;;;;;;5095958;28;20040;-61
2023/10/06 13:05:42;;;;;;;3.15;1.60;;;;;;;;;;5095960;28;20358;-61
2023/10/06 13:08:09;;;;;;;2.50;1.60;;;;;;;;;;5095730;28;20048;-59
2023/10/06 13:10:35;;;;;;;4.25;1.60;;;;;;;;;;5094801;28;20040;-58
2023/10/06 13:13:06;;;;;;;2.30;1.40;;;;;;;;;;5094710;28;20032;-59
2023/10/06 13:15:32;;;;;;;2.78;1.67;;;;;;;;;;5095241;28;20102;-59
2023/10/06 13:17:57;;;;;;;3.85;1.88;;;;;;;;;;5095006;28;20517;-59
2023/10/06 13:20:22;;;;;;;2.22;1.55;;;;;;;;;;5095280;28;20040;-58
2023/10/06 13:22:48;;;;;;;7.72;2.20;;;;;;;;;;5095202;28;20397;-59
2023/10/06 13:25:13;;;;;;;5.32;1.90;;;;;;;;;;5095462;28;20434;-59
2023/10/06 13:27:40;;;;;;;4.25;2.28;;;;;;;;;;5094287;28;20032;-59
2023/10/06 13:30:14;;;;;;;2.92;1.80;;;;;;;;;;5093725;28;20075;-59
2023/10/06 13:32:47;;;;;;;2.50;1.73;;;;;;;;;;5094602;28;20112;-59
2023/10/06 13:35:16;;;;;;;4.50;1.85;;;;;;;;;;5071332;28;20024;-58
2023/10/06 13:37:42;;;;;;;2.30;1.98;;;;;;;;;;5073178;28;20036;-60
2023/10/06 13:40:11;;;;;;;3.83;1.55;;;;;;;;;;5072949;28;20248;-61
2023/10/06 13:42:41;;;;;;;2.83;1.63;;;;;;;;;;5073323;28;20020;-61
2023/10/06 13:45:22;;;;;;;2.92;1.70;;;;;;;;;;5073183;28;20035;-61
2023/10/06 13:48:00;;;;;;;2.35;2.13;;;;;;;;;;5054674;28;20043;-58
2023/10/06 13:50:30;;;;;;;3.47;2.00;;;;;;;;;;5073191;28;20071;-59
2023/10/06 13:52:56;;;;;;;3.40;1.98;;;;;;;;;;5054988;28;20041;-59
2023/10/06 13:55:22;;;;;;;2.63;2.10;;;;;;;;;;5072583;28;20032;-61
2023/10/06 13:57:55;;;;;;;3.13;2.08;;;;;;;;;;5072885;28;20487;-61
2023/10/06 14:00:35;;;;;;;3.80;2.13;;;;;;;;;;5072455;28;20554;-61
2023/10/06 14:03:01;;;;;;;3.65;2.10;;;;;;;;;;5054922;28;20082;-61
2023/10/06 14:05:30;;;;;;;4.53;1.80;;;;;;;;;;5072770;28;20182;-61
2023/10/06 14:07:58;;;;;;;3.72;2.25;;;;;;;;;;5072318;28;20364;-61
2023/10/06 14:10:25;;;;;;;2.78;1.73;;;;;;;;;;5067799;28;20059;-61
2023/10/06 14:12:57;;;;;;;3.00;2.20;;;;;;;;;;5072399;28;20067;-59
2023/10/06 14:15:24;;;;;;;3.30;2.35;;;;;;;;;;5072547;28;20241;-59
2023/10/06 14:17:52;;;;;;;4.78;2.38;;;;;;;;;;5072627;28;20037;-59
2023/10/06 14:20:23;;;;;;;3.92;2.13;;;;;;;;;;5072646;28;20608;-59
2023/10/06 14:22:55;;;;;;;4.95;2.45;;;;;;;;;;5071067;28;20111;-59
2023/10/06 14:25:22;;;;;;;3.28;2.05;;;;;;;;;;5072195;28;20041;-59
2023/10/06 14:27:52;;;;;;;2.67;2.38;;;;;;;;;;5071403;28;20063;-58
2023/10/06 14:30:20;;;;;;;2.10;1.83;;;;;;;;;;5071637;28;20497;-59
2023/10/06 14:33:06;;;;;;;3.30;1.63;;;;;;;;;;5072242;28;20413;-59
2023/10/06 14:35:45;;;;;;;3.13;2.00;;;;;;;;;;5072243;28;20478;-59
2023/10/06 14:46:22;;;;;;;6.90;2.38;;;;;;;;;;5071333;28;20055;-59
2023/10/06 14:48:48;;;;;;;6.05;2.47;;;;;;;;;;5073102;28;20037;-59
2023/10/06 14:51:13;;;;;;;2.45;2.25;;;;;;;;;;5071678;28;20043;-59
2023/10/06 14:53:39;;;;;;;3.15;2.03;;;;;;;;;;5071035;28;20486;-61
2023/10/06 14:56:05;;;;;;;2.78;2.10;;;;;;;;;;5072921;28;20029;-60
2023/10/06 14:58:31;;;;;;;2.83;1.48;;;;;;;;;;5072887;28;20040;-60
2023/10/06 15:01:01;;;;;;;2.72;1.80;;;;;;;;;;5072978;28;20060;-59
2023/10/06 15:03:27;;;;;;;2.70;1.75;;;;;;;;;;5072972;28;20098;-59